sensor_id;sensor_type;location;lat;lon;timestamp;pressure;altitude;pressure_sealevel;temperature;humidity
48053;BME280;33824;51.600;5.718;2022-07-04T00:00:55;101864.97;;;14.49;72.84
48053;BME280;33824;51.600;5.718;2022-07-04T00:03:21;101857.59;;;14.43;72.73
48053;BME280;33824;51.600;5.718;2022-07-04T00:05:46;101860.66;;;14.39;73.05
48053;BME280;33824;51.600;5.718;2022-07-04T00:08:12;101858.31;;;14.36;73.28
48053;BME280;33824;51.600;5.718;2022-07-04T00:10:37;101858.63;;;14.33;72.86
48053;BME280;33824;51.600;5.718;2022-07-04T00:13:03;101855.28;;;14.31;72.84
48053;BME280;33824;51.600;5.718;2022-07-04T00:15:28;101858.16;;;14.30;73.47
48053;BME280;33824;51.600;5.718;2022-07-04T00:17:53;101852.31;;;14.26;74.26
48053;BME280;33824;51.600;5.718;2022-07-04T00:20:19;101850.13;;;14.22;74.62
48053;BME280;33824;51.600;5.718;2022-07-04T00:22:45;101847.81;;;14.19;75.54
48053;BME280;33824;51.600;5.718;2022-07-04T00:25:10;101850.66;;;14.17;76.29
48053;BME280;33824;51.600;5.718;2022-07-04T00:27:39;101852.84;;;14.14;76.16
48053;BME280;33824;51.600;5.718;2022-07-04T00:30:05;101848.31;;;14.14;76.49
48053;BME280;33824;51.600;5.718;2022-07-04T00:32:30;101852.34;;;14.10;76.14
48053;BME280;33824;51.600;5.718;2022-07-04T00:34:56;101843.63;;;14.08;76.55
48053;BME280;33824;51.600;5.718;2022-07-04T00:37:22;101850.00;;;14.07;76.02
48053;BME280;33824;51.600;5.718;2022-07-04T00:39:47;101853.69;;;14.06;76.09
48053;BME280;33824;51.600;5.718;2022-07-04T00:42:13;101843.31;;;14.03;76.83
48053;BME280;33824;51.600;5.718;2022-07-04T00:44:38;101843.66;;;14.00;77.08
48053;BME280;33824;51.600;5.718;2022-07-04T00:47:05;101841.16;;;13.99;77.07
48053;BME280;33824;51.600;5.718;2022-07-04T00:49:31;101843.84;;;13.99;76.55
48053;BME280;33824;51.600;5.718;2022-07-04T00:51:56;101849.34;;;13.97;76.92
48053;BME280;33824;51.600;5.718;2022-07-04T00:54:25;101850.06;;;13.91;76.63
48053;BME280;33824;51.600;5.718;2022-07-04T00:56:52;101847.88;;;13.94;76.11
48053;BME280;33824;51.600;5.718;2022-07-04T00:59:17;101856.06;;;13.93;76.08
48053;BME280;33824;51.600;5.718;2022-07-04T01:01:43;101850.91;;;13.91;75.99
48053;BME280;33824;51.600;5.718;2022-07-04T01:04:09;101851.06;;;13.90;76.22
48053;BME280;33824;51.600;5.718;2022-07-04T01:06:34;101848.56;;;13.88;76.04
48053;BME280;33824;51.600;5.718;2022-07-04T01:09:00;101843.19;;;13.88;75.92
48053;BME280;33824;51.600;5.718;2022-07-04T01:11:26;101842.38;;;13.88;75.82
48053;BME280;33824;51.600;5.718;2022-07-04T01:13:54;101839.19;;;13.84;75.64
48053;BME280;33824;51.600;5.718;2022-07-04T01:16:19;101839.00;;;13.86;75.67
48053;BME280;33824;51.600;5.718;2022-07-04T01:18:45;101842.69;;;13.85;75.71
48053;BME280;33824;51.600;5.718;2022-07-04T01:21:11;101834.81;;;13.83;75.84
48053;BME280;33824;51.600;5.718;2022-07-04T01:23:40;101831.16;;;13.76;75.69
48053;BME280;33824;51.600;5.718;2022-07-04T01:26:08;101836.34;;;13.78;75.73
48053;BME280;33824;51.600;5.718;2022-07-04T01:28:34;101823.97;;;13.77;75.72
48053;BME280;33824;51.600;5.718;2022-07-04T01:30:59;101822.09;;;13.77;75.90
48053;BME280;33824;51.600;5.718;2022-07-04T01:33:25;101824.78;;;13.77;76.45
48053;BME280;33824;51.600;5.718;2022-07-04T01:35:50;101813.41;;;13.75;76.59
48053;BME280;33824;51.600;5.718;2022-07-04T01:38:16;101816.72;;;13.77;76.55
48053;BME280;33824;51.600;5.718;2022-07-04T01:40:42;101817.56;;;13.78;76.63
48053;BME280;33824;51.600;5.718;2022-07-04T01:43:07;101810.72;;;13.75;76.49
48053;BME280;33824;51.600;5.718;2022-07-04T01:45:33;101809.88;;;13.75;76.41
48053;BME280;33824;51.600;5.718;2022-07-04T01:48:05;101810.56;;;13.69;76.38
48053;BME280;33824;51.600;5.718;2022-07-04T01:50:31;101814.91;;;13.70;76.57
48053;BME280;33824;51.600;5.718;2022-07-04T01:52:56;101818.41;;;13.70;76.84
48053;BME280;33824;51.600;5.718;2022-07-04T01:55:22;101809.03;;;13.66;76.78
48053;BME280;33824;51.600;5.718;2022-07-04T01:57:47;101805.03;;;13.62;76.41
48053;BME280;33824;51.600;5.718;2022-07-04T02:00:13;101799.19;;;13.59;76.42
48053;BME280;33824;51.600;5.718;2022-07-04T02:02:57;101802.41;;;13.54;76.07
48053;BME280;33824;51.600;5.718;2022-07-04T02:05:23;101809.09;;;13.50;76.13
48053;BME280;33824;51.600;5.718;2022-07-04T02:07:49;101805.25;;;13.44;76.37
48053;BME280;33824;51.600;5.718;2022-07-04T02:10:15;101802.91;;;13.41;76.63
48053;BME280;33824;51.600;5.718;2022-07-04T02:12:40;101803.75;;;13.34;76.47
48053;BME280;33824;51.600;5.718;2022-07-04T02:15:25;101805.59;;;13.25;76.68
48053;BME280;33824;51.600;5.718;2022-07-04T02:17:50;101809.25;;;13.24;76.84
48053;BME280;33824;51.600;5.718;2022-07-04T02:20:16;101810.28;;;13.23;76.76
48053;BME280;33824;51.600;5.718;2022-07-04T02:22:41;101810.44;;;13.22;76.86
48053;BME280;33824;51.600;5.718;2022-07-04T02:25:07;101811.44;;;13.21;76.59
48053;BME280;33824;51.600;5.718;2022-07-04T02:27:32;101807.13;;;13.20;76.63
48053;BME280;33824;51.600;5.718;2022-07-04T02:29:58;101802.75;;;13.19;76.55
48053;BME280;33824;51.600;5.718;2022-07-04T02:32:26;101811.78;;;13.18;76.81
48053;BME280;33824;51.600;5.718;2022-07-04T02:34:52;101809.44;;;13.15;76.79
48053;BME280;33824;51.600;5.718;2022-07-04T02:37:17;101810.91;;;13.09;76.58
48053;BME280;33824;51.600;5.718;2022-07-04T02:39:43;101809.75;;;13.04;76.57
48053;BME280;33824;51.600;5.718;2022-07-04T02:42:08;101812.06;;;12.98;76.70
48053;BME280;33824;51.600;5.718;2022-07-04T02:44:34;101813.41;;;12.94;76.95
48053;BME280;33824;51.600;5.718;2022-07-04T02:46:59;101820.78;;;12.92;77.07
48053;BME280;33824;51.600;5.718;2022-07-04T02:49:25;101814.09;;;12.88;77.18
48053;BME280;33824;51.600;5.718;2022-07-04T02:51:51;101812.75;;;12.84;77.43
48053;BME280;33824;51.600;5.718;2022-07-04T02:54:17;101815.75;;;12.81;77.46
48053;BME280;33824;51.600;5.718;2022-07-04T02:56:42;101814.22;;;12.79;77.39
48053;BME280;33824;51.600;5.718;2022-07-04T02:59:08;101816.56;;;12.74;77.65
48053;BME280;33824;51.600;5.718;2022-07-04T03:01:34;101818.75;;;12.70;77.75
48053;BME280;33824;51.600;5.718;2022-07-04T03:03:59;101816.56;;;12.66;78.01
48053;BME280;33824;51.600;5.718;2022-07-04T03:06:25;101817.69;;;12.63;78.08
48053;BME280;33824;51.600;5.718;2022-07-04T03:08:50;101817.88;;;12.62;78.50
48053;BME280;33824;51.600;5.718;2022-07-04T03:11:18;101820.56;;;12.62;78.47
48053;BME280;33824;51.600;5.718;2022-07-04T03:13:44;101829.25;;;12.64;78.53
48053;BME280;33824;51.600;5.718;2022-07-04T03:16:09;101833.59;;;12.65;78.77
48053;BME280;33824;51.600;5.718;2022-07-04T03:18:35;101831.91;;;12.64;78.94
48053;BME280;33824;51.600;5.718;2022-07-04T03:21:01;101839.09;;;12.63;79.00
48053;BME280;33824;51.600;5.718;2022-07-04T03:23:30;101843.66;;;12.63;79.37
48053;BME280;33824;51.600;5.718;2022-07-04T03:25:55;101844.44;;;12.63;79.34
48053;BME280;33824;51.600;5.718;2022-07-04T03:28:21;101855.84;;;12.65;79.00
48053;BME280;33824;51.600;5.718;2022-07-04T03:30:46;101851.50;;;12.64;78.77
48053;BME280;33824;51.600;5.718;2022-07-04T03:33:12;101854.66;;;12.68;79.21
48053;BME280;33824;51.600;5.718;2022-07-04T03:35:38;101847.34;;;12.70;79.11
48053;BME280;33824;51.600;5.718;2022-07-04T03:38:03;101849.84;;;12.71;79.25
48053;BME280;33824;51.600;5.718;2022-07-04T03:40:28;101844.19;;;12.74;79.20
48053;BME280;33824;51.600;5.718;2022-07-04T03:42:57;101850.03;;;12.78;79.27
48053;BME280;33824;51.600;5.718;2022-07-04T03:45:24;101850.34;;;12.83;79.29
48053;BME280;33824;51.600;5.718;2022-07-04T03:47:49;101858.59;;;12.89;79.22
48053;BME280;33824;51.600;5.718;2022-07-04T03:50:15;101848.22;;;12.94;79.39
48053;BME280;33824;51.600;5.718;2022-07-04T03:52:40;101858.28;;;13.01;79.50
48053;BME280;33824;51.600;5.718;2022-07-04T03:55:06;101858.28;;;13.09;79.91
48053;BME280;33824;51.600;5.718;2022-07-04T03:57:32;101864.34;;;13.19;79.83
48053;BME280;33824;51.600;5.718;2022-07-04T03:59:57;101868.88;;;13.26;79.71
48053;BME280;33824;51.600;5.718;2022-07-04T04:02:22;101869.88;;;13.33;79.92
48053;BME280;33824;51.600;5.718;2022-07-04T04:04:48;101876.91;;;13.42;79.70
48053;BME280;33824;51.600;5.718;2022-07-04T04:07:32;101871.72;;;13.49;79.72
48053;BME280;33824;51.600;5.718;2022-07-04T04:09:58;101879.41;;;13.60;79.65
48053;BME280;33824;51.600;5.718;2022-07-04T04:12:23;101881.09;;;13.69;79.82
48053;BME280;33824;51.600;5.718;2022-07-04T04:14:49;101879.22;;;13.78;79.98
48053;BME280;33824;51.600;5.718;2022-07-04T04:17:17;101883.91;;;13.84;79.69
48053;BME280;33824;51.600;5.718;2022-07-04T04:19:42;101890.75;;;13.94;79.55
48053;BME280;33824;51.600;5.718;2022-07-04T04:22:08;101887.72;;;14.06;79.83
48053;BME280;33824;51.600;5.718;2022-07-04T04:24:33;101886.16;;;14.19;79.89
48053;BME280;33824;51.600;5.718;2022-07-04T04:26:59;101888.31;;;14.32;79.62
48053;BME280;33824;51.600;5.718;2022-07-04T04:29:24;101889.81;;;14.43;79.01
48053;BME280;33824;51.600;5.718;2022-07-04T04:31:50;101894.28;;;14.58;79.16
48053;BME280;33824;51.600;5.718;2022-07-04T04:34:15;101898.41;;;14.69;78.70
48053;BME280;33824;51.600;5.718;2022-07-04T04:36:41;101898.38;;;14.77;78.60
48053;BME280;33824;51.600;5.718;2022-07-04T04:39:06;101902.22;;;14.82;77.81
48053;BME280;33824;51.600;5.718;2022-07-04T04:41:32;101903.50;;;14.95;78.12
48053;BME280;33824;51.600;5.718;2022-07-04T04:43:57;101913.34;;;15.02;77.16
48053;BME280;33824;51.600;5.718;2022-07-04T04:46:23;101908.75;;;15.11;77.51
48053;BME280;33824;51.600;5.718;2022-07-04T04:48:48;101906.69;;;15.21;77.25
48053;BME280;33824;51.600;5.718;2022-07-04T04:51:13;101901.06;;;15.30;76.90
48053;BME280;33824;51.600;5.718;2022-07-04T04:53:39;101899.78;;;15.41;76.57
48053;BME280;33824;51.600;5.718;2022-07-04T04:56:04;101900.59;;;15.50;76.14
48053;BME280;33824;51.600;5.718;2022-07-04T04:58:30;101897.38;;;15.54;75.87
48053;BME280;33824;51.600;5.718;2022-07-04T05:00:55;101895.63;;;15.61;76.14
48053;BME280;33824;51.600;5.718;2022-07-04T05:03:21;101877.38;;;15.71;75.84
48053;BME280;33824;51.600;5.718;2022-07-04T05:05:46;101881.69;;;15.80;75.76
48053;BME280;33824;51.600;5.718;2022-07-04T05:08:12;101878.91;;;15.89;75.56
48053;BME280;33824;51.600;5.718;2022-07-04T05:10:39;101880.50;;;15.98;75.34
48053;BME280;33824;51.600;5.718;2022-07-04T05:13:04;101880.22;;;16.07;74.70
48053;BME280;33824;51.600;5.718;2022-07-04T05:15:30;101879.31;;;16.15;74.19
48053;BME280;33824;51.600;5.718;2022-07-04T05:17:55;101880.69;;;16.25;74.52
48053;BME280;33824;51.600;5.718;2022-07-04T05:20:21;101879.38;;;16.36;74.27
48053;BME280;33824;51.600;5.718;2022-07-04T05:22:47;101877.81;;;16.56;74.58
48053;BME280;33824;51.600;5.718;2022-07-04T05:25:12;101875.94;;;16.71;74.00
48053;BME280;33824;51.600;5.718;2022-07-04T05:27:39;101875.72;;;16.88;73.63
48053;BME280;33824;51.600;5.718;2022-07-04T05:30:06;101873.16;;;17.01;72.79
48053;BME280;33824;51.600;5.718;2022-07-04T05:32:32;101867.53;;;17.17;72.90
48053;BME280;33824;51.600;5.718;2022-07-04T05:34:57;101872.84;;;17.32;73.45
48053;BME280;33824;51.600;5.718;2022-07-04T05:37:23;101876.06;;;17.42;71.83
48053;BME280;33824;51.600;5.718;2022-07-04T05:39:49;101880.66;;;17.48;71.81
48053;BME280;33824;51.600;5.718;2022-07-04T05:42:15;101880.72;;;17.54;71.45
48053;BME280;33824;51.600;5.718;2022-07-04T05:44:40;101886.28;;;17.67;71.27
48053;BME280;33824;51.600;5.718;2022-07-04T05:47:06;101876.19;;;17.76;71.44
48053;BME280;33824;51.600;5.718;2022-07-04T05:49:32;101877.06;;;17.83;71.12
48053;BME280;33824;51.600;5.718;2022-07-04T05:51:57;101870.91;;;17.96;70.95
48053;BME280;33824;51.600;5.718;2022-07-04T05:54:23;101886.16;;;18.10;70.64
48053;BME280;33824;51.600;5.718;2022-07-04T05:56:48;101884.41;;;18.30;70.19
48053;BME280;33824;51.600;5.718;2022-07-04T05:59:14;101881.16;;;18.41;69.90
48053;BME280;33824;51.600;5.718;2022-07-04T06:01:39;101887.47;;;18.55;69.17
48053;BME280;33824;51.600;5.718;2022-07-04T06:04:05;101891.09;;;18.75;68.85
48053;BME280;33824;51.600;5.718;2022-07-04T06:06:31;101887.81;;;18.86;68.72
48053;BME280;33824;51.600;5.718;2022-07-04T06:08:57;101890.13;;;19.02;67.76
48053;BME280;33824;51.600;5.718;2022-07-04T06:11:22;101884.75;;;19.09;66.98
48053;BME280;33824;51.600;5.718;2022-07-04T06:13:48;101886.84;;;19.27;67.46
48053;BME280;33824;51.600;5.718;2022-07-04T06:16:15;101886.25;;;19.38;66.69
48053;BME280;33824;51.600;5.718;2022-07-04T06:18:41;101881.06;;;19.56;66.38
48053;BME280;33824;51.600;5.718;2022-07-04T06:21:06;101886.28;;;19.64;66.30
48053;BME280;33824;51.600;5.718;2022-07-04T06:23:32;101894.16;;;19.39;66.16
48053;BME280;33824;51.600;5.718;2022-07-04T06:25:57;101889.34;;;19.28;65.99
48053;BME280;33824;51.600;5.718;2022-07-04T06:28:25;101886.66;;;19.41;66.41
48053;BME280;33824;51.600;5.718;2022-07-04T06:30:50;101886.28;;;19.51;64.91
48053;BME280;33824;51.600;5.718;2022-07-04T06:33:15;101892.75;;;19.63;65.04
48053;BME280;33824;51.600;5.718;2022-07-04T06:35:41;101895.88;;;19.67;65.19
48053;BME280;33824;51.600;5.718;2022-07-04T06:38:27;101894.81;;;19.68;64.52
48053;BME280;33824;51.600;5.718;2022-07-04T06:40:57;101894.63;;;19.69;65.04
48053;BME280;33824;51.600;5.718;2022-07-04T06:43:23;101885.84;;;19.87;65.45
48053;BME280;33824;51.600;5.718;2022-07-04T06:45:49;101889.78;;;20.10;64.69
48053;BME280;33824;51.600;5.718;2022-07-04T06:48:15;101885.78;;;20.26;64.89
48053;BME280;33824;51.600;5.718;2022-07-04T06:50:40;101888.25;;;20.47;64.35
48053;BME280;33824;51.600;5.718;2022-07-04T06:53:07;101886.53;;;20.59;64.29
48053;BME280;33824;51.600;5.718;2022-07-04T06:55:32;101892.72;;;20.80;63.80
48053;BME280;33824;51.600;5.718;2022-07-04T06:57:58;101881.72;;;21.06;62.83
48053;BME280;33824;51.600;5.718;2022-07-04T07:00:24;101878.91;;;21.26;61.92
48053;BME280;33824;51.600;5.718;2022-07-04T07:02:49;101889.50;;;21.34;60.28
48053;BME280;33824;51.600;5.718;2022-07-04T07:05:15;101886.88;;;21.21;60.38
48053;BME280;33824;51.600;5.718;2022-07-04T07:07:40;101890.25;;;21.10;60.49
48053;BME280;33824;51.600;5.718;2022-07-04T07:10:06;101887.97;;;21.13;60.82
48053;BME280;33824;51.600;5.718;2022-07-04T07:12:32;101883.78;;;21.11;59.86
48053;BME280;33824;51.600;5.718;2022-07-04T07:14:58;101881.56;;;20.94;60.51
48053;BME280;33824;51.600;5.718;2022-07-04T07:17:24;101869.50;;;20.90;60.29
48053;BME280;33824;51.600;5.718;2022-07-04T07:19:50;101879.84;;;21.06;60.54
48053;BME280;33824;51.600;5.718;2022-07-04T07:22:15;101876.19;;;21.26;60.57
48053;BME280;33824;51.600;5.718;2022-07-04T07:24:42;101875.94;;;21.59;61.17
48053;BME280;33824;51.600;5.718;2022-07-04T07:27:07;101863.41;;;21.82;59.61
48053;BME280;33824;51.600;5.718;2022-07-04T07:29:34;101863.56;;;21.87;60.17
48053;BME280;33824;51.600;5.718;2022-07-04T07:32:00;101862.56;;;21.82;58.52
48053;BME280;33824;51.600;5.718;2022-07-04T07:34:25;101873.31;;;21.70;58.76
48053;BME280;33824;51.600;5.718;2022-07-04T07:36:51;101870.88;;;21.87;57.47
48053;BME280;33824;51.600;5.718;2022-07-04T07:39:17;101865.50;;;22.05;57.91
48053;BME280;33824;51.600;5.718;2022-07-04T07:41:42;101865.88;;;22.27;57.26
48053;BME280;33824;51.600;5.718;2022-07-04T07:44:08;101872.44;;;22.37;57.29
48053;BME280;33824;51.600;5.718;2022-07-04T07:46:34;101874.66;;;22.47;56.59
48053;BME280;33824;51.600;5.718;2022-07-04T07:48:59;101867.59;;;22.58;57.33
48053;BME280;33824;51.600;5.718;2022-07-04T07:51:25;101874.56;;;22.72;56.36
48053;BME280;33824;51.600;5.718;2022-07-04T07:53:50;101870.84;;;22.66;56.57
48053;BME280;33824;51.600;5.718;2022-07-04T07:56:16;101879.63;;;22.86;57.16
48053;BME280;33824;51.600;5.718;2022-07-04T07:58:41;101873.75;;;23.01;56.24
48053;BME280;33824;51.600;5.718;2022-07-04T08:01:07;101873.78;;;23.13;55.60
48053;BME280;33824;51.600;5.718;2022-07-04T08:03:32;101855.69;;;23.18;55.34
48053;BME280;33824;51.600;5.718;2022-07-04T08:06:16;101860.19;;;23.13;55.59
48053;BME280;33824;51.600;5.718;2022-07-04T08:08:43;101851.31;;;23.17;55.07
48053;BME280;33824;51.600;5.718;2022-07-04T08:11:09;101849.69;;;23.28;54.51
48053;BME280;33824;51.600;5.718;2022-07-04T08:13:36;101846.84;;;23.23;53.93
48053;BME280;33824;51.600;5.718;2022-07-04T08:16:01;101839.75;;;23.33;54.07
48053;BME280;33824;51.600;5.718;2022-07-04T08:18:27;101846.84;;;23.23;53.79
48053;BME280;33824;51.600;5.718;2022-07-04T08:20:52;101848.75;;;23.34;54.22
48053;BME280;33824;51.600;5.718;2022-07-04T08:23:18;101845.47;;;23.55;54.43
48053;BME280;33824;51.600;5.718;2022-07-04T08:25:43;101858.16;;;23.50;53.46
48053;BME280;33824;51.600;5.718;2022-07-04T08:28:09;101854.25;;;23.57;53.86
48053;BME280;33824;51.600;5.718;2022-07-04T08:30:34;101855.56;;;23.78;54.17
48053;BME280;33824;51.600;5.718;2022-07-04T08:33:00;101859.59;;;23.75;53.36
48053;BME280;33824;51.600;5.718;2022-07-04T08:35:26;101853.22;;;23.70;53.54
48053;BME280;33824;51.600;5.718;2022-07-04T08:37:52;101862.19;;;23.70;53.78
48053;BME280;33824;51.600;5.718;2022-07-04T08:40:23;101864.91;;;23.70;53.24
48053;BME280;33824;51.600;5.718;2022-07-04T08:42:49;101864.09;;;23.93;53.34
48053;BME280;33824;51.600;5.718;2022-07-04T08:45:16;101865.66;;;24.01;52.98
48053;BME280;33824;51.600;5.718;2022-07-04T08:47:43;101855.91;;;24.05;51.87
48053;BME280;33824;51.600;5.718;2022-07-04T08:50:16;101869.56;;;23.93;51.67
48053;BME280;33824;51.600;5.718;2022-07-04T08:52:53;101871.66;;;24.03;51.63
48053;BME280;33824;51.600;5.718;2022-07-04T08:55:19;101867.06;;;24.15;51.33
48053;BME280;33824;51.600;5.718;2022-07-04T08:58:04;101862.91;;;24.24;51.53
48053;BME280;33824;51.600;5.718;2022-07-04T09:00:50;101868.59;;;24.34;50.88
48053;BME280;33824;51.600;5.718;2022-07-04T09:03:18;101864.50;;;24.48;50.33
48053;BME280;33824;51.600;5.718;2022-07-04T09:05:43;101868.16;;;24.65;49.54
48053;BME280;33824;51.600;5.718;2022-07-04T09:08:09;101870.22;;;24.75;48.82
48053;BME280;33824;51.600;5.718;2022-07-04T09:10:35;101869.88;;;24.71;48.83
48053;BME280;33824;51.600;5.718;2022-07-04T09:13:02;101865.00;;;24.85;48.97
48053;BME280;33824;51.600;5.718;2022-07-04T09:15:28;101853.47;;;24.95;48.73
48053;BME280;33824;51.600;5.718;2022-07-04T09:17:54;101858.53;;;25.03;49.28
48053;BME280;33824;51.600;5.718;2022-07-04T09:20:23;101857.44;;;25.04;49.53
48053;BME280;33824;51.600;5.718;2022-07-04T09:22:50;101857.44;;;25.04;48.29
48053;BME280;33824;51.600;5.718;2022-07-04T09:25:17;101859.41;;;25.08;47.61
48053;BME280;33824;51.600;5.718;2022-07-04T09:27:44;101855.69;;;24.98;47.47
48053;BME280;33824;51.600;5.718;2022-07-04T09:30:11;101852.41;;;25.12;46.82
48053;BME280;33824;51.600;5.718;2022-07-04T09:32:40;101857.69;;;25.19;46.46
48053;BME280;33824;51.600;5.718;2022-07-04T09:35:11;101862.00;;;25.15;47.09
48053;BME280;33824;51.600;5.718;2022-07-04T09:37:45;101857.97;;;25.17;47.53
48053;BME280;33824;51.600;5.718;2022-07-04T09:42:51;101862.09;;;25.20;47.39
48053;BME280;33824;51.600;5.718;2022-07-04T09:45:17;101862.81;;;24.99;47.57
48053;BME280;33824;51.600;5.718;2022-07-04T09:47:45;101868.66;;;24.91;47.67
48053;BME280;33824;51.600;5.718;2022-07-04T09:50:16;101862.25;;;25.13;48.01
48053;BME280;33824;51.600;5.718;2022-07-04T09:52:53;101854.91;;;25.30;46.56
48053;BME280;33824;51.600;5.718;2022-07-04T09:55:38;101860.63;;;25.46;46.62
48053;BME280;33824;51.600;5.718;2022-07-04T09:58:12;101857.59;;;25.59;45.19
48053;BME280;33824;51.600;5.718;2022-07-04T10:00:43;101854.50;;;25.39;47.04
48053;BME280;33824;51.600;5.718;2022-07-04T10:03:27;101853.44;;;25.40;46.75
48053;BME280;33824;51.600;5.718;2022-07-04T10:06:09;101858.88;;;25.40;45.34
48053;BME280;33824;51.600;5.718;2022-07-04T10:08:39;101853.66;;;25.38;46.69
48053;BME280;33824;51.600;5.718;2022-07-04T10:11:06;101849.22;;;25.65;45.62
48053;BME280;33824;51.600;5.718;2022-07-04T10:13:32;101842.59;;;25.61;46.64
48053;BME280;33824;51.600;5.718;2022-07-04T10:15:58;101845.66;;;25.65;45.78
48053;BME280;33824;51.600;5.718;2022-07-04T10:18:24;101841.63;;;25.67;45.76
48053;BME280;33824;51.600;5.718;2022-07-04T10:20:52;101841.13;;;25.70;45.39
48053;BME280;33824;51.600;5.718;2022-07-04T10:23:20;101838.03;;;25.50;46.01
48053;BME280;33824;51.600;5.718;2022-07-04T10:25:47;101842.34;;;25.29;46.75
48053;BME280;33824;51.600;5.718;2022-07-04T10:28:14;101842.56;;;25.28;46.77
48053;BME280;33824;51.600;5.718;2022-07-04T10:30:40;101841.13;;;25.54;45.94
48053;BME280;33824;51.600;5.718;2022-07-04T10:33:10;101833.69;;;26.04;45.94
48053;BME280;33824;51.600;5.718;2022-07-04T10:38:25;101835.19;;;26.55;44.46
48053;BME280;33824;51.600;5.718;2022-07-04T10:40:53;101821.28;;;26.84;43.60
48053;BME280;33824;51.600;5.718;2022-07-04T10:54:13;101814.19;;;27.46;41.58
48053;BME280;33824;51.600;5.718;2022-07-04T10:56:45;101813.09;;;27.47;41.24
48053;BME280;33824;51.600;5.718;2022-07-04T10:59:16;101810.38;;;27.20;41.03
48053;BME280;33824;51.600;5.718;2022-07-04T11:01:51;101817.88;;;26.77;40.72
48053;BME280;33824;51.600;5.718;2022-07-04T11:07:15;101803.88;;;27.27;41.85
48053;BME280;33824;51.600;5.718;2022-07-04T11:09:41;101799.06;;;27.39;42.38
48053;BME280;33824;51.600;5.718;2022-07-04T11:12:08;101793.09;;;27.89;41.78
48053;BME280;33824;51.600;5.718;2022-07-04T11:14:45;101798.38;;;27.53;41.12
48053;BME280;33824;51.600;5.718;2022-07-04T11:17:21;101804.59;;;27.17;40.24
48053;BME280;33824;51.600;5.718;2022-07-04T11:20:03;101802.16;;;27.15;41.06
48053;BME280;33824;51.600;5.718;2022-07-04T11:22:29;101801.41;;;26.93;42.48
48053;BME280;33824;51.600;5.718;2022-07-04T11:24:55;101803.41;;;27.03;42.39
48053;BME280;33824;51.600;5.718;2022-07-04T11:27:22;101796.50;;;27.27;40.62
48053;BME280;33824;51.600;5.718;2022-07-04T11:29:52;101797.41;;;27.06;41.08
48053;BME280;33824;51.600;5.718;2022-07-04T11:32:19;101793.97;;;26.89;40.86
48053;BME280;33824;51.600;5.718;2022-07-04T11:34:45;101794.34;;;27.02;39.96
48053;BME280;33824;51.600;5.718;2022-07-04T11:37:12;101782.16;;;27.47;39.53
48053;BME280;33824;51.600;5.718;2022-07-04T11:39:38;101776.16;;;27.50;40.17
48053;BME280;33824;51.600;5.718;2022-07-04T11:42:04;101786.06;;;26.92;41.27
48053;BME280;33824;51.600;5.718;2022-07-04T11:44:47;101794.19;;;26.60;42.52
48053;BME280;33824;51.600;5.718;2022-07-04T11:47:42;101798.59;;;26.18;43.87
48053;BME280;33824;51.600;5.718;2022-07-04T11:50:09;101792.38;;;26.22;43.69
48053;BME280;33824;51.600;5.718;2022-07-04T11:52:40;101794.97;;;26.12;44.54
48053;BME280;33824;51.600;5.718;2022-07-04T11:55:11;101796.84;;;26.29;45.13
48053;BME280;33824;51.600;5.718;2022-07-04T11:57:42;101793.72;;;26.68;43.48
48053;BME280;33824;51.600;5.718;2022-07-04T12:00:12;101789.84;;;26.38;44.41
48053;BME280;33824;51.600;5.718;2022-07-04T12:02:39;101784.63;;;26.85;43.58
48053;BME280;33824;51.600;5.718;2022-07-04T12:05:08;101787.59;;;26.83;45.01
48053;BME280;33824;51.600;5.718;2022-07-04T12:07:38;101789.03;;;26.86;44.33
48053;BME280;33824;51.600;5.718;2022-07-04T12:10:18;101769.69;;;26.70;43.29
48053;BME280;33824;51.600;5.718;2022-07-04T12:15:24;101778.41;;;26.94;44.74
48053;BME280;33824;51.600;5.718;2022-07-04T12:17:54;101773.38;;;27.13;43.44
48053;BME280;33824;51.600;5.718;2022-07-04T12:20:22;101778.69;;;26.93;43.05
48053;BME280;33824;51.600;5.718;2022-07-04T12:23:01;101780.09;;;26.47;43.63
48053;BME280;33824;51.600;5.718;2022-07-04T12:25:30;101787.50;;;26.24;43.37
48053;BME280;33824;51.600;5.718;2022-07-04T12:28:05;101782.44;;;26.16;43.24
48053;BME280;33824;51.600;5.718;2022-07-04T12:30:34;101779.34;;;26.30;42.41
48053;BME280;33824;51.600;5.718;2022-07-04T12:33:02;101778.66;;;26.66;42.36
48053;BME280;33824;51.600;5.718;2022-07-04T12:35:45;101782.88;;;26.79;41.89
48053;BME280;33824;51.600;5.718;2022-07-04T12:38:21;101782.03;;;27.00;40.07
48053;BME280;33824;51.600;5.718;2022-07-04T12:41:04;101771.59;;;26.70;39.70
48053;BME280;33824;51.600;5.718;2022-07-04T12:46:31;101765.75;;;26.13;41.20
48053;BME280;33824;51.600;5.718;2022-07-04T12:48:59;101765.50;;;26.63;42.34
48053;BME280;33824;51.600;5.718;2022-07-04T12:51:30;101764.47;;;26.96;40.04
48053;BME280;33824;51.600;5.718;2022-07-04T12:53:57;101766.84;;;26.87;40.75
48053;BME280;33824;51.600;5.718;2022-07-04T12:58:59;101756.91;;;27.08;41.60
48053;BME280;33824;51.600;5.718;2022-07-04T13:01:24;101753.81;;;27.36;40.23
48053;BME280;33824;51.600;5.718;2022-07-04T13:03:50;101757.22;;;27.11;37.63
48053;BME280;33824;51.600;5.718;2022-07-04T13:06:16;101758.25;;;27.05;36.69
48053;BME280;33824;51.600;5.718;2022-07-04T13:08:41;101750.91;;;27.11;38.43
48053;BME280;33824;51.600;5.718;2022-07-04T13:11:07;101751.03;;;27.26;37.84
48053;BME280;33824;51.600;5.718;2022-07-04T13:13:51;101751.84;;;27.63;38.73
48053;BME280;33824;51.600;5.718;2022-07-04T13:16:16;101744.41;;;27.59;37.58
48053;BME280;33824;51.600;5.718;2022-07-04T13:18:41;101739.75;;;27.59;36.03